createdAt,value
2023-04-20T00:00:54.819Z,6.45
2023-04-20T00:01:59.110Z,6.44
2023-04-20T00:03:02.077Z,6.41
2023-04-20T00:04:04.214Z,6.44
2023-04-20T00:05:09.031Z,6.48
2023-04-20T00:06:10.869Z,6.49
2023-04-20T00:07:13.112Z,6.48
2023-04-20T00:08:15.022Z,6.47
2023-04-20T00:09:17.178Z,6.50
2023-04-20T00:10:20.014Z,6.51
2023-04-20T00:11:21.840Z,6.48
2023-04-20T00:12:23.612Z,6.43
2023-04-20T00:13:26.524Z,6.37
2023-04-20T00:14:28.323Z,6.35
2023-04-20T00:15:30.541Z,6.34
2023-04-20T00:16:32.379Z,6.37
2023-04-20T00:17:34.305Z,6.38
2023-04-20T00:18:36.116Z,6.38
2023-04-20T00:19:37.864Z,6.38
2023-04-20T00:20:40.063Z,6.38
2023-04-20T00:21:42.005Z,6.40
2023-04-20T00:22:43.822Z,6.38
2023-04-20T00:23:45.586Z,6.38
2023-04-20T00:24:47.387Z,6.41
2023-04-20T00:25:51.016Z,6.43
2023-04-20T00:26:52.852Z,6.46
2023-04-20T00:27:54.617Z,6.44
2023-04-20T00:28:56.537Z,6.45
2023-04-20T00:29:58.314Z,6.46
2023-04-20T00:31:00.158Z,6.43
2023-04-20T00:32:02.041Z,6.39
2023-04-20T00:33:03.972Z,6.37
2023-04-20T00:34:05.929Z,6.39
2023-04-20T00:35:08.167Z,6.38
2023-04-20T00:36:10.069Z,6.40
2023-04-20T00:37:11.901Z,6.43
2023-04-20T00:38:13.864Z,6.45
2023-04-20T00:39:16.712Z,6.45
2023-04-20T00:40:18.826Z,6.46
2023-04-20T00:41:20.617Z,6.44
2023-04-20T00:42:22.448Z,6.41
2023-04-20T00:43:24.380Z,6.34
2023-04-20T00:44:26.120Z,6.35
2023-04-20T00:45:27.865Z,6.33
2023-04-20T00:46:29.811Z,6.30
2023-04-20T00:47:31.684Z,6.25
2023-04-20T00:48:33.558Z,6.23
2023-04-20T00:49:35.432Z,6.22
2023-04-20T00:50:37.707Z,6.21
2023-04-20T00:51:40.017Z,6.21
2023-04-20T00:52:41.989Z,6.20
2023-04-20T00:53:44.805Z,6.21
2023-04-20T00:54:46.738Z,6.25
2023-04-20T00:55:49.078Z,6.29
2023-04-20T00:56:52.305Z,6.31
2023-04-20T00:57:54.100Z,6.30
2023-04-20T00:58:56.200Z,6.27
2023-04-20T00:59:58.095Z,6.27
2023-04-20T01:01:00.058Z,6.28
2023-04-20T01:02:01.947Z,6.30
2023-04-20T01:03:05.324Z,6.32
2023-04-20T01:04:08.099Z,6.38
2023-04-20T01:05:10.760Z,6.37
2023-04-20T01:06:14.083Z,6.39
2023-04-20T01:07:16.032Z,6.39
2023-04-20T01:08:17.873Z,6.42
2023-04-20T01:09:19.903Z,6.40
2023-04-20T01:10:21.836Z,6.40
2023-04-20T01:11:23.736Z,6.41
2023-04-20T01:12:25.929Z,6.43
2023-04-20T01:13:27.730Z,6.47
2023-04-20T01:14:29.511Z,6.46
2023-04-20T01:15:31.372Z,6.48
2023-04-20T01:16:35.073Z,6.50
2023-04-20T01:17:42.143Z,6.51
2023-04-20T01:18:48.639Z,6.50
2023-04-20T01:19:50.747Z,6.50
2023-04-20T01:20:52.490Z,6.51
2023-04-20T01:21:54.483Z,6.51
2023-04-20T01:22:57.146Z,6.45
2023-04-20T01:23:58.914Z,6.38
2023-04-20T01:25:00.804Z,6.34
2023-04-20T01:26:06.512Z,6.32
2023-04-20T01:27:08.273Z,6.34
2023-04-20T01:28:10.146Z,6.34
2023-04-20T01:29:11.875Z,6.35
2023-04-20T01:30:13.877Z,6.39
2023-04-20T01:31:15.730Z,6.40
2023-04-20T01:32:18.089Z,6.42
2023-04-20T01:33:19.814Z,6.43
2023-04-20T01:34:21.647Z,6.42
2023-04-20T01:35:23.411Z,6.42
2023-04-20T01:36:25.203Z,6.41
2023-04-20T01:37:27.149Z,6.42
2023-04-20T01:38:29.005Z,6.45
2023-04-20T01:39:31.358Z,6.48
2023-04-20T01:40:34.072Z,6.47
2023-04-20T01:41:36.046Z,6.45
2023-04-20T01:42:37.987Z,6.48
2023-04-20T01:43:39.964Z,6.51
2023-04-20T01:44:41.806Z,6.53
2023-04-20T01:45:45.222Z,6.56
2023-04-20T01:46:46.995Z,6.55
2023-04-20T01:47:48.822Z,6.54
2023-04-20T01:48:50.627Z,6.50
2023-04-20T01:49:52.389Z,6.45
2023-04-20T01:50:55.137Z,6.46
2023-04-20T01:51:57.475Z,6.48
2023-04-20T01:52:59.263Z,6.50
2023-04-20T01:54:01.512Z,6.52
2023-04-20T01:55:03.332Z,6.50
2023-04-20T01:56:06.182Z,6.48
2023-04-20T01:57:07.986Z,6.49
2023-04-20T01:58:09.909Z,6.53
2023-04-20T01:59:11.661Z,6.53
2023-04-20T02:00:13.917Z,6.56
2023-04-20T02:01:16.178Z,6.58
2023-04-20T02:02:18.449Z,6.57
2023-04-20T02:03:20.412Z,6.58
2023-04-20T02:04:23.520Z,6.52
2023-04-20T02:05:25.384Z,6.48
2023-04-20T02:06:27.190Z,6.46
2023-04-20T02:07:28.892Z,6.46
2023-04-20T02:08:30.756Z,6.45
2023-04-20T02:09:32.540Z,6.41
2023-04-20T02:10:34.301Z,6.44
2023-04-20T02:11:37.139Z,6.45
2023-04-20T02:12:38.943Z,6.46
2023-04-20T02:13:40.750Z,6.43
2023-04-20T02:14:42.560Z,6.40
2023-04-20T02:15:44.312Z,6.37
2023-04-20T02:16:48.256Z,6.28
2023-04-20T02:17:52.969Z,6.30
2023-04-20T02:18:55.278Z,6.32
2023-04-20T02:19:57.065Z,6.32
2023-04-20T02:20:59.367Z,6.34
2023-04-20T02:22:01.586Z,6.32
2023-04-20T02:23:04.317Z,6.34
2023-04-20T02:24:06.613Z,6.34
2023-04-20T02:25:09.099Z,6.34
2023-04-20T02:26:10.842Z,6.34
2023-04-20T02:27:12.600Z,6.36
2023-04-20T02:28:14.404Z,6.37
2023-04-20T02:29:16.652Z,6.38
2023-04-20T02:30:18.536Z,6.38
2023-04-20T02:31:20.373Z,6.36
2023-04-20T02:32:22.233Z,6.34
2023-04-20T02:33:25.198Z,6.32
2023-04-20T02:34:26.983Z,6.34
2023-04-20T02:35:28.829Z,6.37
2023-04-20T02:36:31.162Z,6.36
2023-04-20T02:37:33.021Z,6.37
2023-04-20T02:38:35.165Z,6.32
2023-04-20T02:39:36.863Z,6.28
2023-04-20T02:40:38.612Z,6.28
2023-04-20T02:41:41.195Z,6.31
2023-04-20T02:42:42.995Z,6.31
2023-04-20T02:43:44.879Z,6.29
2023-04-20T02:44:46.704Z,6.31
2023-04-20T02:45:48.571Z,6.34
2023-04-20T02:46:52.287Z,6.38
2023-04-20T02:47:54.544Z,6.40
2023-04-20T02:48:56.986Z,6.42
2023-04-20T02:49:58.830Z,6.43
2023-04-20T02:51:01.381Z,6.40
2023-04-20T02:52:03.266Z,6.37
2023-04-20T02:53:05.321Z,6.36
2023-04-20T02:54:07.136Z,6.37
2023-04-20T02:55:09.013Z,6.36
2023-04-20T02:56:11.080Z,6.35
2023-04-20T02:57:12.971Z,6.35
2023-04-20T02:58:14.729Z,6.36
2023-04-20T02:59:17.472Z,6.36
2023-04-20T03:00:19.937Z,6.38
2023-04-20T03:01:22.048Z,6.42
2023-04-20T03:02:24.051Z,6.41
2023-04-20T03:03:26.112Z,6.41
2023-04-20T03:04:28.140Z,6.38
2023-04-20T03:05:30.209Z,6.34
2023-04-20T03:06:32.768Z,6.35
2023-04-20T03:07:34.574Z,6.32
2023-04-20T03:08:36.633Z,6.35
2023-04-20T03:09:38.411Z,6.36
2023-04-20T03:10:40.190Z,6.36
2023-04-20T03:11:42.000Z,6.36
2023-04-20T03:12:44.258Z,6.32
2023-04-20T03:13:46.069Z,6.31
2023-04-20T03:14:48.105Z,6.31
2023-04-20T03:15:49.888Z,6.32
2023-04-20T03:16:51.832Z,6.31
2023-04-20T03:17:53.734Z,6.34
2023-04-20T03:18:55.605Z,6.31
2023-04-20T03:19:57.707Z,6.31
2023-04-20T03:20:59.477Z,6.33
2023-04-20T03:22:01.464Z,6.32
2023-04-20T03:23:03.312Z,6.34
2023-04-20T03:24:07.102Z,6.31
2023-04-20T03:25:09.476Z,6.27
2023-04-20T03:26:11.276Z,6.19
2023-04-20T03:27:13.004Z,6.16
2023-04-20T03:28:16.316Z,6.15
2023-04-20T03:29:18.427Z,6.14
2023-04-20T03:30:20.453Z,6.18
2023-04-20T03:31:22.267Z,6.18
2023-04-20T03:32:24.103Z,6.15
2023-04-20T03:33:27.177Z,6.17
2023-04-20T03:34:28.910Z,6.20
2023-04-20T03:35:30.730Z,6.26
2023-04-20T03:36:33.020Z,6.27
2023-04-20T03:37:35.125Z,6.30
2023-04-20T03:38:37.109Z,6.31
2023-04-20T03:39:38.834Z,6.35
2023-04-20T03:40:40.683Z,6.36
2023-04-20T03:41:42.548Z,6.34
2023-04-20T03:42:44.338Z,6.29
2023-04-20T03:43:46.174Z,6.27
2023-04-20T03:44:47.936Z,6.30
2023-04-20T03:45:49.846Z,6.33
2023-04-20T03:46:51.799Z,6.35
2023-04-20T03:47:53.645Z,6.32
2023-04-20T03:48:55.494Z,6.31
2023-04-20T03:49:57.288Z,6.31
2023-04-20T03:50:59.221Z,6.34
2023-04-20T03:52:00.965Z,6.36
2023-04-20T03:53:02.770Z,6.37
2023-04-20T03:54:06.227Z,6.37
2023-04-20T03:55:08.171Z,6.35
2023-04-20T03:56:09.940Z,6.36
2023-04-20T03:57:11.737Z,6.37
2023-04-20T03:58:13.494Z,6.37
2023-04-20T03:59:15.854Z,6.39
2023-04-20T04:00:17.849Z,6.40
2023-04-20T04:01:19.639Z,6.36
2023-04-20T04:02:22.973Z,6.34
2023-04-20T04:03:25.185Z,6.31
2023-04-20T04:04:27.477Z,6.34
2023-04-20T04:05:29.509Z,6.31
2023-04-20T04:06:32.340Z,6.29
2023-04-20T04:07:34.131Z,6.28
2023-04-20T04:08:36.074Z,6.29
2023-04-20T04:09:37.871Z,6.30
2023-04-20T04:10:41.321Z,6.31
2023-04-20T04:11:43.191Z,6.32
2023-04-20T04:12:47.625Z,6.32
2023-04-20T04:13:49.601Z,6.27
2023-04-20T04:14:51.453Z,6.25
2023-04-20T04:15:53.128Z,6.24
2023-04-20T04:16:55.003Z,6.23
2023-04-20T04:17:56.927Z,6.24
2023-04-20T04:18:58.737Z,6.25
2023-04-20T04:20:02.377Z,6.22
2023-04-20T04:21:04.336Z,6.18
2023-04-20T04:22:07.534Z,6.19
2023-04-20T04:23:09.312Z,6.17
2023-04-20T04:24:11.037Z,6.14
2023-04-20T04:25:13.359Z,6.11
2023-04-20T04:26:15.458Z,6.09
2023-04-20T04:27:18.309Z,6.05
2023-04-20T04:28:20.165Z,6.08
2023-04-20T04:29:22.612Z,6.14
2023-04-20T04:30:24.418Z,6.20
2023-04-20T04:31:26.266Z,6.24
2023-04-20T04:32:28.097Z,6.27
2023-04-20T04:33:30.103Z,6.27
2023-04-20T04:34:33.952Z,6.27
2023-04-20T04:35:35.926Z,6.21
2023-04-20T04:36:37.728Z,6.20
2023-04-20T04:37:39.676Z,6.24
2023-04-20T04:38:45.022Z,6.28
2023-04-20T04:39:46.968Z,6.31
2023-04-20T04:40:48.838Z,6.34
2023-04-20T04:41:51.433Z,6.37
2023-04-20T04:42:53.242Z,6.39
2023-04-20T04:43:55.069Z,6.40
2023-04-20T04:44:57.342Z,6.41
2023-04-20T04:45:59.489Z,6.43
2023-04-20T04:47:02.865Z,6.45
2023-04-20T04:48:08.160Z,6.46
2023-04-20T04:49:10.790Z,6.49
2023-04-20T04:50:13.233Z,6.50
2023-04-20T04:51:15.008Z,6.50
2023-04-20T04:52:16.743Z,6.48
2023-04-20T04:53:18.518Z,6.45
2023-04-20T04:54:20.383Z,6.39
2023-04-20T04:55:22.229Z,6.38
2023-04-20T04:56:24.190Z,6.39
2023-04-20T04:57:26.678Z,6.41
2023-04-20T04:58:28.556Z,6.38
2023-04-20T04:59:30.383Z,6.36
2023-04-20T05:00:32.282Z,6.34
2023-04-20T05:01:34.091Z,6.35
2023-04-20T05:02:36.090Z,6.32
2023-04-20T05:03:38.346Z,6.30
2023-04-20T05:04:40.302Z,6.29
2023-04-20T05:05:42.321Z,6.29
2023-04-20T05:06:44.199Z,6.31
2023-04-20T05:07:46.051Z,6.34
2023-04-20T05:08:47.840Z,6.36
2023-04-20T05:09:49.639Z,6.38
2023-04-20T05:10:51.358Z,6.41
2023-04-20T05:11:53.149Z,6.39
2023-04-20T05:12:54.882Z,6.39
2023-04-20T05:13:56.709Z,6.43
2023-04-20T05:14:58.509Z,6.44
2023-04-20T05:16:00.763Z,6.47
2023-04-20T05:17:03.415Z,6.48
2023-04-20T05:18:05.421Z,6.49
2023-04-20T05:19:07.293Z,6.45
2023-04-20T05:20:10.854Z,6.46
2023-04-20T05:21:12.822Z,6.49
2023-04-20T05:22:14.776Z,6.52
2023-04-20T05:23:17.062Z,6.53
2023-04-20T05:24:19.782Z,6.53
2023-04-20T05:25:21.660Z,6.51
2023-04-20T05:26:23.469Z,6.54
2023-04-20T05:27:25.217Z,6.53
2023-04-20T05:28:27.148Z,6.52
2023-04-20T05:29:28.952Z,6.48
2023-04-20T05:30:30.737Z,6.49
2023-04-20T05:31:33.781Z,6.52
2023-04-20T05:32:35.687Z,6.51
2023-04-20T05:33:37.567Z,6.46
2023-04-20T05:34:39.338Z,6.40
2023-04-20T05:35:41.286Z,6.40
2023-04-20T05:36:43.265Z,6.43
2023-04-20T05:37:45.214Z,6.49
2023-04-20T05:38:47.091Z,6.54
2023-04-20T05:39:48.864Z,6.60
2023-04-20T05:40:52.103Z,6.64
2023-04-20T05:41:53.970Z,6.61
2023-04-20T05:42:55.820Z,6.56
2023-04-20T05:43:57.777Z,6.55
2023-04-20T05:44:59.559Z,6.55
2023-04-20T05:46:01.347Z,6.52
2023-04-20T05:47:06.599Z,6.54
2023-04-20T05:48:08.344Z,6.60
2023-04-20T05:49:10.160Z,6.69
2023-04-20T05:50:12.012Z,6.73
2023-04-20T05:51:14.319Z,6.77
2023-04-20T05:52:16.081Z,6.73
2023-04-20T05:53:17.934Z,6.72
2023-04-20T05:54:19.789Z,6.69
2023-04-20T05:55:23.001Z,6.69
2023-04-20T05:56:25.020Z,6.68
2023-04-20T05:57:26.857Z,6.64
2023-04-20T05:58:28.697Z,6.69
2023-04-20T05:59:30.644Z,6.75
2023-04-20T06:00:32.583Z,6.83
2023-04-20T06:01:34.641Z,6.90
2023-04-20T06:02:37.123Z,6.93
2023-04-20T06:03:39.378Z,6.94
2023-04-20T06:04:43.874Z,6.95
2023-04-20T06:05:46.285Z,6.96
2023-04-20T06:06:48.112Z,7.00
2023-04-20T06:07:49.894Z,7.01
2023-04-20T06:08:52.480Z,7.01
2023-04-20T06:09:54.578Z,7.03
2023-04-20T06:10:57.443Z,7.05
2023-04-20T06:12:00.601Z,7.10
2023-04-20T06:13:02.544Z,7.14
2023-04-20T06:14:04.325Z,7.18
2023-04-20T06:15:11.228Z,7.23
2023-04-20T06:16:13.230Z,7.24
2023-04-20T06:17:15.508Z,7.23
2023-04-20T06:18:17.260Z,7.25
2023-04-20T06:19:19.229Z,7.27
2023-04-20T06:20:21.453Z,7.29
2023-04-20T06:21:24.899Z,7.29
2023-04-20T06:22:26.922Z,7.21
2023-04-20T06:23:28.688Z,7.21
2023-04-20T06:24:30.480Z,7.24
2023-04-20T06:25:32.328Z,7.28
2023-04-20T06:26:34.130Z,7.30
2023-04-20T06:27:36.075Z,7.31
2023-04-20T06:28:38.066Z,7.32
2023-04-20T06:29:39.878Z,7.35
2023-04-20T06:30:41.764Z,7.32
2023-04-20T06:31:43.758Z,7.31
2023-04-20T06:32:46.865Z,7.31
2023-04-20T06:33:48.638Z,7.33
2023-04-20T06:34:51.496Z,7.34
2023-04-20T06:35:54.920Z,7.31
2023-04-20T06:36:56.868Z,7.33
2023-04-20T06:37:58.825Z,7.34
2023-04-20T06:39:00.733Z,7.33
2023-04-20T06:40:05.852Z,7.32
2023-04-20T06:41:07.725Z,7.32
2023-04-20T06:42:09.573Z,7.30
2023-04-20T06:43:11.378Z,7.30
2023-04-20T06:44:13.164Z,7.29
2023-04-20T06:45:15.017Z,7.31
2023-04-20T06:46:18.576Z,7.33
2023-04-20T06:47:21.114Z,7.33
2023-04-20T06:48:32.146Z,7.34
2023-04-20T06:49:34.965Z,7.41
2023-04-20T06:50:36.774Z,7.45
2023-04-20T06:51:39.549Z,7.48
2023-04-20T06:52:41.445Z,7.52
2023-04-20T06:53:43.264Z,7.57
2023-04-20T06:54:45.219Z,7.58
2023-04-20T06:55:47.085Z,7.59
2023-04-20T06:56:48.978Z,7.63
2023-04-20T06:57:50.898Z,7.66
2023-04-20T06:58:52.687Z,7.62
2023-04-20T06:59:54.548Z,7.62
2023-04-20T07:00:56.313Z,7.63
2023-04-20T07:01:58.273Z,7.67
2023-04-20T07:03:00.417Z,7.75
2023-04-20T07:04:02.442Z,7.80
2023-04-20T07:05:04.624Z,7.83
2023-04-20T07:06:07.595Z,7.86
2023-04-20T07:07:10.549Z,7.91
2023-04-20T07:08:12.301Z,8.04
2023-04-20T07:09:14.083Z,8.11
2023-04-20T07:10:16.399Z,8.21
2023-04-20T07:11:18.204Z,8.25
2023-04-20T07:12:21.589Z,8.23
2023-04-20T07:13:23.411Z,8.26
2023-04-20T07:14:26.571Z,8.34
2023-04-20T07:15:28.373Z,8.38
2023-04-20T07:16:30.203Z,8.41
2023-04-20T07:17:32.448Z,8.44
2023-04-20T07:18:35.360Z,8.40
2023-04-20T07:19:37.871Z,8.46
2023-04-20T07:20:39.768Z,8.46
2023-04-20T07:21:42.026Z,8.44
2023-04-20T07:22:43.842Z,8.42
2023-04-20T07:23:45.751Z,8.43
2023-04-20T07:24:47.469Z,8.43
2023-04-20T07:25:49.298Z,8.45
2023-04-20T07:26:51.817Z,8.47
2023-04-20T07:27:53.716Z,8.48
2023-04-20T07:28:55.739Z,8.54
2023-04-20T07:29:58.932Z,8.57
2023-04-20T07:31:00.787Z,8.61
2023-04-20T07:32:02.602Z,8.60
2023-04-20T07:33:04.521Z,8.62
2023-04-20T07:34:06.333Z,8.65
2023-04-20T07:35:08.504Z,8.69
2023-04-20T07:36:10.884Z,8.70
2023-04-20T07:37:13.644Z,8.64
2023-04-20T07:38:15.936Z,8.65
2023-04-20T07:39:18.006Z,8.68
2023-04-20T07:40:20.150Z,8.72
2023-04-20T07:41:23.448Z,8.72
2023-04-20T07:42:25.313Z,8.73
2023-04-20T07:43:27.328Z,8.74
2023-04-20T07:44:29.143Z,8.78
2023-04-20T07:45:31.051Z,8.80
2023-04-20T07:46:33.030Z,8.83
2023-04-20T07:47:35.462Z,8.87
2023-04-20T07:48:37.804Z,8.89
2023-04-20T07:49:41.188Z,8.90
2023-04-20T07:50:43.080Z,8.89
2023-04-20T07:51:45.716Z,8.91
2023-04-20T07:52:47.643Z,8.91
2023-04-20T07:53:49.506Z,8.94
2023-04-20T07:54:54.166Z,8.98
2023-04-20T07:55:56.308Z,8.97
2023-04-20T07:56:58.193Z,9.04
2023-04-20T07:58:00.928Z,9.12
2023-04-20T07:59:02.874Z,9.16
2023-04-20T08:00:08.953Z,9.22
2023-04-20T08:01:11.551Z,9.31
2023-04-20T08:02:13.528Z,9.33
2023-04-20T08:03:15.983Z,9.37
2023-04-20T08:04:18.122Z,9.40
2023-04-20T08:05:20.303Z,9.39
2023-04-20T08:06:22.425Z,9.38
2023-04-20T08:07:24.373Z,9.39
2023-04-20T08:08:26.120Z,9.43
2023-04-20T08:09:28.821Z,9.47
2023-04-20T08:10:30.898Z,9.50
2023-04-20T08:11:33.075Z,9.55
2023-04-20T08:12:34.863Z,9.56
2023-04-20T08:13:37.599Z,9.58
2023-04-20T08:14:40.729Z,9.59
2023-04-20T08:15:42.579Z,9.53
2023-04-20T08:16:44.509Z,9.52
2023-04-20T08:17:46.330Z,9.54
2023-04-20T08:18:48.208Z,9.58
2023-04-20T08:19:50.129Z,9.44
2023-04-20T08:20:51.919Z,9.41
2023-04-20T08:21:54.552Z,9.48
2023-04-20T08:22:56.506Z,9.53
2023-04-20T08:23:58.297Z,9.59
2023-04-20T08:25:00.201Z,9.66
2023-04-20T08:26:02.071Z,9.75
2023-04-20T08:27:03.897Z,9.80
2023-04-20T08:28:11.755Z,9.89
2023-04-20T08:29:14.222Z,9.99
2023-04-20T08:30:16.267Z,10.09
2023-04-20T08:31:18.182Z,10.14
2023-04-20T08:32:22.959Z,10.22
2023-04-20T08:33:24.818Z,10.33
2023-04-20T08:34:26.721Z,10.35
2023-04-20T08:35:28.698Z,10.41
2023-04-20T08:36:30.532Z,10.45
2023-04-20T08:37:33.164Z,10.47
2023-04-20T08:38:35.212Z,10.53
2023-04-20T08:39:38.313Z,10.58
2023-04-20T08:40:40.788Z,10.63
2023-04-20T08:41:42.598Z,10.71
2023-04-20T08:42:44.392Z,10.75
2023-04-20T08:43:46.964Z,10.79
2023-04-20T08:44:48.991Z,10.82
2023-04-20T08:45:52.082Z,10.83
2023-04-20T08:46:54.788Z,10.86
2023-04-20T08:47:58.644Z,10.90
2023-04-20T08:49:04.425Z,10.87
2023-04-20T08:50:06.960Z,10.96
2023-04-20T08:51:09.348Z,10.93
2023-04-20T08:52:12.409Z,10.89
2023-04-20T08:53:14.645Z,10.94
2023-04-20T08:54:17.257Z,11.06
2023-04-20T08:55:20.668Z,11.10
2023-04-20T08:56:42.828Z,11.15
2023-04-20T08:57:44.759Z,11.19
2023-04-20T08:58:46.575Z,11.22
2023-04-20T08:59:48.365Z,11.28
2023-04-20T09:00:50.232Z,11.34
2023-04-20T09:01:53.808Z,11.37
2023-04-20T09:02:56.368Z,11.35
2023-04-20T09:03:59.185Z,11.36
2023-04-20T09:05:01.881Z,11.41
2023-04-20T09:06:04.702Z,11.49
2023-04-20T09:07:07.614Z,11.55
2023-04-20T09:08:09.674Z,11.56
2023-04-20T09:09:12.001Z,11.55
2023-04-20T09:10:13.903Z,11.53
2023-04-20T09:11:25.572Z,11.48
2023-04-20T09:12:29.791Z,11.55
2023-04-20T09:13:31.611Z,11.52
2023-04-20T09:14:49.200Z,11.57
2023-04-20T09:15:51.215Z,11.60
2023-04-20T09:16:57.144Z,11.60
2023-04-20T09:17:59.846Z,11.57
2023-04-20T09:19:01.662Z,11.57
2023-04-20T09:20:05.397Z,11.59
2023-04-20T09:21:10.998Z,11.67
2023-04-20T09:22:12.970Z,11.76
2023-04-20T09:23:18.505Z,11.94
2023-04-20T09:24:21.814Z,12.00
2023-04-20T09:25:24.672Z,12.08
2023-04-20T09:26:26.515Z,12.19
2023-04-20T09:27:29.048Z,12.33
2023-04-20T09:28:39.378Z,12.41
2023-04-20T09:29:41.391Z,12.48
2023-04-20T09:30:47.283Z,12.47
2023-04-20T09:31:49.751Z,12.50
2023-04-20T09:33:01.673Z,12.54
2023-04-20T09:34:04.120Z,12.57
2023-04-20T09:35:08.215Z,12.59
2023-04-20T09:36:11.814Z,12.59
2023-04-20T09:37:15.882Z,12.63
2023-04-20T09:38:17.793Z,12.69
2023-04-20T09:39:20.521Z,12.71
2023-04-20T09:40:23.468Z,12.74
2023-04-20T09:41:25.487Z,12.69
2023-04-20T09:42:29.076Z,12.70
2023-04-20T09:43:31.532Z,12.76
2023-04-20T09:44:33.611Z,12.78
2023-04-20T09:45:36.411Z,12.86
2023-04-20T09:46:40.870Z,12.88
2023-04-20T09:47:43.277Z,12.98
2023-04-20T09:48:45.118Z,13.06
2023-04-20T09:49:47.820Z,13.09
2023-04-20T09:50:51.461Z,13.09
2023-04-20T09:51:53.810Z,13.17
2023-04-20T09:52:56.300Z,13.26
2023-04-20T09:53:59.109Z,13.36
2023-04-20T09:55:01.106Z,13.40
2023-04-20T09:56:03.488Z,13.47
2023-04-20T09:57:06.249Z,13.53
2023-04-20T09:58:09.915Z,13.63
2023-04-20T09:59:12.267Z,13.59
2023-04-20T10:00:14.379Z,13.57
2023-04-20T10:01:16.178Z,13.63
2023-04-20T10:02:18.078Z,13.74
2023-04-20T10:03:20.690Z,13.88
2023-04-20T10:04:22.999Z,13.95
2023-04-20T10:05:39.856Z,14.01
2023-04-20T10:06:52.434Z,14.11
2023-04-20T10:07:59.505Z,14.23
2023-04-20T10:09:02.369Z,14.34
2023-04-20T10:10:08.354Z,14.44
2023-04-20T10:11:10.561Z,14.55
2023-04-20T10:12:14.117Z,14.58
2023-04-20T10:13:17.305Z,14.59
2023-04-20T10:14:21.068Z,14.69
2023-04-20T10:15:24.398Z,14.77
2023-04-20T10:16:26.982Z,14.82
2023-04-20T10:17:32.412Z,14.93
2023-04-20T10:18:34.495Z,14.98
2023-04-20T10:19:46.900Z,14.92
2023-04-20T10:20:49.331Z,14.88
2023-04-20T10:21:52.785Z,14.91
2023-04-20T10:22:55.329Z,14.92
2023-04-20T10:23:59.146Z,14.88
2023-04-20T10:25:02.854Z,14.88
2023-04-20T10:26:04.661Z,14.98
2023-04-20T10:27:22.326Z,15.14
2023-04-20T10:28:24.370Z,15.20
2023-04-20T10:29:26.874Z,15.36
2023-04-20T10:30:29.639Z,15.53
2023-04-20T10:31:42.928Z,15.67
2023-04-20T10:32:44.767Z,15.93
2023-04-20T10:33:50.503Z,16.07
2023-04-20T10:35:02.129Z,16.18
2023-04-20T10:36:04.196Z,16.25
2023-04-20T10:37:09.213Z,16.31
2023-04-20T10:38:11.728Z,16.28
2023-04-20T10:39:15.971Z,16.30
2023-04-20T10:40:27.346Z,16.31
2023-04-20T10:41:29.162Z,16.28
2023-04-20T10:42:41.414Z,16.24
2023-04-20T10:43:43.800Z,16.25
2023-04-20T10:44:49.400Z,16.19
2023-04-20T10:45:51.255Z,16.20
2023-04-20T10:46:54.946Z,16.15
2023-04-20T10:47:57.475Z,16.09
2023-04-20T10:49:04.938Z,16.10
2023-04-20T10:50:12.976Z,16.08
2023-04-20T10:51:14.757Z,16.06
2023-04-20T10:52:16.501Z,16.07
2023-04-20T10:53:22.117Z,16.05
2023-04-20T10:54:24.015Z,15.98
2023-04-20T10:55:26.363Z,15.88
2023-04-20T10:56:28.315Z,15.84
2023-04-20T10:57:30.197Z,15.83
2023-04-20T10:58:32.000Z,15.86
2023-04-20T10:59:37.652Z,15.79
2023-04-20T11:00:39.470Z,15.73
2023-04-20T11:01:41.702Z,15.74
2023-04-20T11:02:47.468Z,15.77
2023-04-20T11:03:52.000Z,15.84
2023-04-20T11:04:57.072Z,15.85
2023-04-20T11:06:01.923Z,15.85
2023-04-20T11:07:08.022Z,15.87
2023-04-20T11:08:09.976Z,15.93
2023-04-20T11:09:23.016Z,16.04
2023-04-20T11:10:37.344Z,16.12
2023-04-20T11:11:39.537Z,16.27
2023-04-20T11:12:41.352Z,16.46
2023-04-20T11:13:43.372Z,16.56
2023-04-20T11:14:55.086Z,16.73
2023-04-20T11:15:57.952Z,16.92
2023-04-20T11:17:00.015Z,17.09
2023-04-20T11:18:08.911Z,17.20
2023-04-20T11:19:10.810Z,17.24
2023-04-20T11:20:14.083Z,17.24
2023-04-20T11:21:16.024Z,17.44
2023-04-20T11:22:21.967Z,17.60
2023-04-20T11:23:25.002Z,17.71
2023-04-20T11:24:31.266Z,17.84
2023-04-20T11:25:33.098Z,17.86
2023-04-20T11:26:39.951Z,17.96
2023-04-20T11:27:42.393Z,18.10
2023-04-20T11:28:55.784Z,18.25
2023-04-20T11:29:58.621Z,18.43
2023-04-20T11:31:00.733Z,18.57
2023-04-20T11:32:07.357Z,18.59
2023-04-20T11:33:11.228Z,18.61
2023-04-20T11:34:19.531Z,18.65
2023-04-20T11:35:21.382Z,18.73
2023-04-20T11:36:23.893Z,18.54
2023-04-20T11:37:25.703Z,18.36
2023-04-20T11:38:31.656Z,18.15
2023-04-20T11:39:34.174Z,17.88
2023-04-20T11:40:36.345Z,17.63
2023-04-20T11:41:39.480Z,17.72
2023-04-20T11:42:41.351Z,17.78
2023-04-20T11:43:46.391Z,17.92
2023-04-20T11:44:49.567Z,18.00
2023-04-20T11:45:51.419Z,17.99
2023-04-20T11:46:54.565Z,17.92
2023-04-20T11:47:56.508Z,17.79
2023-04-20T11:49:00.536Z,17.59
2023-04-20T11:50:02.331Z,17.28
2023-04-20T11:51:04.288Z,16.98
2023-04-20T11:52:06.179Z,16.74
2023-04-20T11:53:10.088Z,16.69
2023-04-20T11:54:12.116Z,16.63
2023-04-20T11:55:14.162Z,16.46
2023-04-20T11:56:17.993Z,16.35
2023-04-20T11:57:21.943Z,16.29
2023-04-20T11:58:23.839Z,16.18
2023-04-20T11:59:25.819Z,15.98
2023-04-20T12:00:27.704Z,15.89
2023-04-20T12:01:29.810Z,15.90
2023-04-20T12:02:31.769Z,15.91
2023-04-20T12:03:34.055Z,15.83
2023-04-20T12:04:36.241Z,15.93
2023-04-20T12:05:38.431Z,16.09
2023-04-20T12:06:40.302Z,16.18
2023-04-20T12:07:42.209Z,16.30
2023-04-20T12:08:44.167Z,16.36
2023-04-20T12:09:45.974Z,16.34
2023-04-20T12:10:47.791Z,16.28
2023-04-20T12:11:49.589Z,16.22
2023-04-20T12:12:51.305Z,16.28
2023-04-20T12:13:54.779Z,16.39
2023-04-20T12:14:56.614Z,16.54
2023-04-20T12:15:58.427Z,16.67
2023-04-20T12:17:04.249Z,16.67
2023-04-20T12:18:06.518Z,16.83
2023-04-20T12:19:10.089Z,17.06
2023-04-20T12:20:12.524Z,17.17
2023-04-20T12:21:14.553Z,17.18
2023-04-20T12:22:16.446Z,17.34
2023-04-20T12:23:18.298Z,17.66
2023-04-20T12:24:20.099Z,17.88
2023-04-20T12:25:21.969Z,18.03
2023-04-20T12:26:34.603Z,18.08
2023-04-20T12:27:39.857Z,18.14
2023-04-20T12:28:41.620Z,17.96
2023-04-20T12:29:43.548Z,17.84
2023-04-20T12:30:45.367Z,17.93
2023-04-20T12:31:47.207Z,17.80
2023-04-20T12:32:49.165Z,17.66
2023-04-20T12:33:51.048Z,17.68
2023-04-20T12:34:53.000Z,17.63
2023-04-20T12:35:54.848Z,17.51
2023-04-20T12:36:56.733Z,17.36
2023-04-20T12:37:58.639Z,17.35
2023-04-20T12:39:01.974Z,17.33
2023-04-20T12:40:07.097Z,17.32
2023-04-20T12:41:13.409Z,17.43
2023-04-20T12:42:15.202Z,17.53
2023-04-20T12:43:17.069Z,17.50
2023-04-20T12:44:19.197Z,17.63
2023-04-20T12:45:21.182Z,17.75
2023-04-20T12:46:23.226Z,17.97
2023-04-20T12:47:25.168Z,18.12
2023-04-20T12:48:27.089Z,18.00
2023-04-20T12:49:28.909Z,17.99
2023-04-20T12:50:30.893Z,18.09
2023-04-20T12:51:34.188Z,18.17
2023-04-20T12:52:35.946Z,18.35
2023-04-20T12:53:37.756Z,18.44
2023-04-20T12:54:40.374Z,18.54
2023-04-20T12:55:43.546Z,18.77
2023-04-20T12:56:45.408Z,18.98
2023-04-20T12:57:47.207Z,18.74
2023-04-20T12:58:49.053Z,18.87
2023-04-20T12:59:50.949Z,18.64
2023-04-20T13:00:52.762Z,18.58
2023-04-20T13:01:55.180Z,18.67
2023-04-20T13:02:57.210Z,18.81
2023-04-20T13:04:00.418Z,18.76
2023-04-20T13:05:02.620Z,19.02
2023-04-20T13:06:04.468Z,19.07
2023-04-20T13:07:06.319Z,19.31
2023-04-20T13:08:08.109Z,19.62
2023-04-20T13:09:10.114Z,19.73
2023-04-20T13:10:12.255Z,19.73
2023-04-20T13:11:16.296Z,19.71
2023-04-20T13:12:18.109Z,19.96
2023-04-20T13:13:19.868Z,20.13
2023-04-20T13:14:21.915Z,19.94
2023-04-20T13:15:37.568Z,19.75
2023-04-20T13:16:41.063Z,20.07
2023-04-20T13:17:43.007Z,20.18
2023-04-20T13:18:44.895Z,20.39
2023-04-20T13:19:47.239Z,20.54
2023-04-20T13:20:49.147Z,20.73
2023-04-20T13:21:52.308Z,20.84
2023-04-20T13:22:57.625Z,20.89
2023-04-20T13:24:00.130Z,20.82
2023-04-20T13:25:02.150Z,20.86
2023-04-20T13:26:04.078Z,20.69
2023-04-20T13:27:05.861Z,20.77
2023-04-20T13:28:07.867Z,20.80
2023-04-20T13:29:09.660Z,20.29
2023-04-20T13:30:11.834Z,19.84
2023-04-20T13:31:13.579Z,20.04
2023-04-20T13:32:15.639Z,20.28
2023-04-20T13:33:17.675Z,20.27
2023-04-20T13:34:19.947Z,20.08
2023-04-20T13:35:22.269Z,19.92
2023-04-20T13:36:24.791Z,19.92
2023-04-20T13:37:27.435Z,20.00
2023-04-20T13:38:29.265Z,20.19
2023-04-20T13:39:31.064Z,20.42
2023-04-20T13:40:32.823Z,20.75
2023-04-20T13:41:34.703Z,21.08
2023-04-20T13:42:36.776Z,21.13
2023-04-20T13:43:38.624Z,21.16
2023-04-20T13:44:40.450Z,21.10